Thomaston, Connecticut
Current Conditions -  °F | °C
As of 10:55 PM on Monday 22 Dec 2014 (Local Time) from KOXC Reporting Station
Overcast Overcast  
Wind Chill: 36°   Ceiling: 400
Heat Index: 39°   Visibility: 2mi
Dew Point: 34°   Wind: 5mph
Humidity: 81%   Direction: 70°ENE
Pressure: 30.24"   Gusts: NA
Location:  41.67°N, 73.07°W
Report Text: KOXC 230355Z 07004KT 2SM OVC004 04/01 A3024 RMK AO1
Loading
Personal Weather Stations






























Interactive Weather Map New forecast layout! Learn more

10-Day Weather Forecast

Advertisements
Track Severe Weather on mobile